createdAt,value
2018-09-21T00:01:38.217Z,100286.89
2018-09-21T00:04:11.558Z,100283.76
2018-09-21T00:06:40.860Z,100278.41
2018-09-21T00:09:11.513Z,100275.78
2018-09-21T00:11:40.471Z,100276.73
2018-09-21T00:14:09.474Z,100271.30
2018-09-21T00:16:38.461Z,100273.63
2018-09-21T00:19:07.415Z,100265.19
2018-09-21T00:21:36.546Z,100263.83
2018-09-21T00:24:05.489Z,100261.22
2018-09-21T00:26:34.491Z,100263.41
2018-09-21T00:29:03.501Z,100265.38
2018-09-21T00:31:32.539Z,100267.57
2018-09-21T00:34:01.507Z,100265.14
2018-09-21T00:36:30.492Z,100266.69
2018-09-21T00:38:59.509Z,100262.91
2018-09-21T00:41:28.468Z,100266.71
2018-09-21T00:43:57.556Z,100266.28
2018-09-21T00:46:26.614Z,100267.05
2018-09-21T00:48:55.569Z,100260.75
2018-09-21T00:51:24.561Z,100256.42
2018-09-21T00:53:53.533Z,100260.57
2018-09-21T00:56:22.567Z,100255.21
2018-09-21T00:58:51.494Z,100262.72
2018-09-21T01:01:20.432Z,100257.87
2018-09-21T01:03:49.489Z,100265.53
2018-09-21T01:06:18.449Z,100262.72
2018-09-21T01:08:47.474Z,100261.69
2018-09-21T01:11:16.426Z,100261.23
2018-09-21T01:13:45.370Z,100254.84
2018-09-21T01:16:14.372Z,100260.25
2018-09-21T01:18:43.402Z,100261.60
2018-09-21T01:21:12.400Z,100258.57
2018-09-21T01:23:41.349Z,100260.25
2018-09-21T01:26:10.381Z,100257.55
2018-09-21T01:28:39.384Z,100259.50
2018-09-21T01:31:08.341Z,100262.44
2018-09-21T01:33:37.359Z,100256.38
2018-09-21T01:36:06.337Z,100260.77
2018-09-21T01:38:35.283Z,100254.52
2018-09-21T01:41:04.260Z,100257.63
2018-09-21T01:43:33.235Z,100254.79
2018-09-21T01:46:02.176Z,100260.06
2018-09-21T01:48:31.196Z,100257.55
2018-09-21T01:51:00.137Z,100250.97
2018-09-21T01:53:29.177Z,100256.66
2018-09-21T01:55:58.188Z,100255.78
2018-09-21T01:58:27.162Z,100261.19
2018-09-21T02:00:56.113Z,100258.67
2018-09-21T02:03:25.956Z,100258.34
2018-09-21T02:05:54.951Z,100251.99
2018-09-21T02:08:23.999Z,100252.88
2018-09-21T02:10:53.003Z,100250.44
2018-09-21T02:13:22.084Z,100249.92
2018-09-21T02:15:51.289Z,100251.77
2018-09-21T02:18:20.295Z,100256.82
2018-09-21T02:20:49.349Z,100257.45
2018-09-21T02:23:18.316Z,100260.59
2018-09-21T02:25:47.276Z,100253.47
2018-09-21T02:28:16.371Z,100260.84
2018-09-21T02:30:45.317Z,100262.23
2018-09-21T02:33:14.392Z,100256.83
2018-09-21T02:35:43.331Z,100260.05
2018-09-21T02:38:12.434Z,100261.72
2018-09-21T02:40:41.477Z,100265.95
2018-09-21T02:43:10.610Z,100266.35
2018-09-21T02:45:39.592Z,100268.06
2018-09-21T02:48:08.689Z,100271.42
2018-09-21T02:50:37.767Z,100265.45
2018-09-21T02:53:06.717Z,100262.74
2018-09-21T02:55:35.769Z,100270.08
2018-09-21T02:58:04.777Z,100269.09
2018-09-21T03:00:33.849Z,100265.22
2018-09-21T03:03:02.812Z,100272.71
2018-09-21T03:05:31.834Z,100271.36
2018-09-21T03:08:00.872Z,100270.34
2018-09-21T03:10:29.868Z,100272.78
2018-09-21T03:12:58.900Z,100279.56
2018-09-21T03:15:27.930Z,100280.28
2018-09-21T03:17:56.927Z,100279.00
2018-09-21T03:20:25.895Z,100278.07
2018-09-21T03:22:54.920Z,100289.23
2018-09-21T03:25:23.996Z,100287.95
2018-09-21T03:27:52.981Z,100286.59
2018-09-21T03:30:21.996Z,100289.38
2018-09-21T03:32:51.014Z,100293.17
2018-09-21T03:35:20.014Z,100292.59
2018-09-21T03:37:49.024Z,100291.65
2018-09-21T03:40:17.981Z,100285.97
2018-09-21T03:42:47.055Z,100289.20
2018-09-21T03:45:16.025Z,100293.48
2018-09-21T03:47:45.040Z,100290.80
2018-09-21T03:50:14.007Z,100290.18
2018-09-21T03:52:43.034Z,100286.15
2018-09-21T03:55:12.003Z,100290.38
2018-09-21T03:57:40.971Z,100292.61
2018-09-21T04:00:10.393Z,100285.89
2018-09-21T04:02:39.335Z,100289.64
2018-09-21T04:05:08.282Z,100293.69
2018-09-21T04:07:37.255Z,100298.70
2018-09-21T04:10:06.406Z,100298.00
2018-09-21T04:12:35.409Z,100298.64
2018-09-21T04:15:04.491Z,100302.34
2018-09-21T04:17:33.572Z,100302.95
2018-09-21T04:20:02.532Z,100299.38
2018-09-21T04:22:31.799Z,100302.52
2018-09-21T04:25:01.239Z,100305.14
2018-09-21T04:27:30.348Z,100303.39
2018-09-21T04:29:59.486Z,100306.06
2018-09-21T04:32:28.424Z,100312.42
2018-09-21T04:34:57.532Z,100315.61
2018-09-21T04:37:26.509Z,100318.73
2018-09-21T04:39:55.503Z,100318.15
2018-09-21T04:42:24.496Z,100316.54
2018-09-21T04:44:53.470Z,100315.34
2018-09-21T04:47:22.436Z,100320.27
2018-09-21T04:49:51.458Z,100319.41
2018-09-21T04:52:20.520Z,100320.62
2018-09-21T04:54:49.557Z,100321.56
2018-09-21T04:57:18.602Z,100319.66
2018-09-21T04:59:47.538Z,100322.86
2018-09-21T05:02:16.499Z,100317.02
2018-09-21T05:04:45.442Z,100323.28
2018-09-21T05:07:14.382Z,100318.25
2018-09-21T05:09:43.350Z,100324.59
2018-09-21T05:12:12.437Z,100322.04
2018-09-21T05:14:41.379Z,100324.08
2018-09-21T05:17:10.362Z,100329.13
2018-09-21T05:19:39.401Z,100326.34
2018-09-21T05:22:08.485Z,100331.45
2018-09-21T05:24:37.443Z,100330.62
2018-09-21T05:27:06.465Z,100324.89
2018-09-21T05:29:35.484Z,100325.46
2018-09-21T05:32:04.482Z,100327.09
2018-09-21T05:34:33.541Z,100328.13
2018-09-21T05:37:02.648Z,100329.81
2018-09-21T05:39:31.633Z,100325.34
2018-09-21T05:42:00.643Z,100323.66
2018-09-21T05:44:29.643Z,100319.52
2018-09-21T05:46:58.645Z,100326.27
2018-09-21T05:49:27.603Z,100324.66
2018-09-21T05:51:56.541Z,100323.48
2018-09-21T05:54:25.536Z,100324.17
2018-09-21T05:56:54.597Z,100319.98
2018-09-21T05:59:23.689Z,100320.73
2018-09-21T06:01:52.640Z,100321.20
2018-09-21T06:04:21.600Z,100320.95
2018-09-21T06:06:50.554Z,100324.91
2018-09-21T06:09:19.513Z,100327.26
2018-09-21T06:11:48.529Z,100335.44
2018-09-21T06:14:17.534Z,100333.18
2018-09-21T06:16:46.608Z,100335.55
2018-09-21T06:19:15.624Z,100340.05
2018-09-21T06:21:44.575Z,100344.19
2018-09-21T06:24:13.594Z,100347.98
2018-09-21T06:26:42.559Z,100346.78
2018-09-21T06:29:11.601Z,100354.00
2018-09-21T06:31:40.533Z,100350.71
2018-09-21T06:34:09.552Z,100346.88
2018-09-21T06:36:38.571Z,100350.70
2018-09-21T06:39:10.587Z,100343.81
2018-09-21T06:41:39.888Z,100353.30
2018-09-21T06:44:09.074Z,100349.98
2018-09-21T06:46:38.067Z,100348.97
2018-09-21T06:49:07.198Z,100344.42
2018-09-21T06:51:36.251Z,100344.12
2018-09-21T06:54:05.248Z,100345.81
2018-09-21T06:56:34.279Z,100341.42
2018-09-21T06:59:03.261Z,100344.05
2018-09-21T07:01:32.267Z,100340.61
2018-09-21T07:04:01.224Z,100342.11
2018-09-21T07:06:30.239Z,100337.66
2018-09-21T07:08:59.260Z,100339.66
2018-09-21T07:11:28.204Z,100340.02
2018-09-21T07:13:57.219Z,100341.39
2018-09-21T07:16:26.309Z,100340.42
2018-09-21T07:18:55.287Z,100336.23
2018-09-21T07:21:24.991Z,100336.75
2018-09-21T07:23:53.975Z,100331.47
2018-09-21T07:26:23.142Z,100334.89
2018-09-21T07:28:52.300Z,100331.86
2018-09-21T07:31:21.316Z,100328.61
2018-09-21T07:33:50.342Z,100335.77
2018-09-21T07:36:19.389Z,100332.86
2018-09-21T07:38:48.428Z,100330.98
2018-09-21T07:41:17.391Z,100331.83
2018-09-21T07:43:46.570Z,100332.73
2018-09-21T07:46:15.548Z,100330.28
2018-09-21T07:48:46.516Z,100329.23
2018-09-21T07:51:15.548Z,100331.90
2018-09-21T07:53:44.542Z,100324.52
2018-09-21T07:56:13.710Z,100320.50
2018-09-21T07:58:42.755Z,100319.97
2018-09-21T08:01:11.729Z,100312.94
2018-09-21T08:03:40.756Z,100312.03
2018-09-21T08:06:09.761Z,100306.86
2018-09-21T08:08:38.738Z,100310.47
2018-09-21T08:11:07.691Z,100307.69
2018-09-21T08:13:36.719Z,100310.17
2018-09-21T08:16:05.738Z,100312.03
2018-09-21T08:18:34.764Z,100302.56
2018-09-21T08:21:03.730Z,100307.69
2018-09-21T08:23:32.681Z,100306.94
2018-09-21T08:26:01.713Z,100313.22
2018-09-21T08:28:30.674Z,100307.93
2018-09-21T08:30:59.660Z,100307.44
2018-09-21T08:33:28.608Z,100305.45
2018-09-21T08:35:57.619Z,100298.37
2018-09-21T08:38:26.638Z,100303.14
2018-09-21T08:40:56.305Z,100293.62
2018-09-21T08:43:25.329Z,100292.11
2018-09-21T08:45:54.319Z,100281.14
2018-09-21T08:48:23.283Z,100289.22
2018-09-21T08:50:52.232Z,100281.95
2018-09-21T08:53:21.371Z,100278.03
2018-09-21T08:55:50.328Z,100278.03
2018-09-21T08:58:19.360Z,100272.36
2018-09-21T09:00:48.399Z,100272.13
2018-09-21T09:03:17.441Z,100269.34
2018-09-21T09:05:52.284Z,100263.32
2018-09-21T09:08:22.897Z,100269.45
2018-09-21T09:10:52.073Z,100262.92
2018-09-21T09:13:21.079Z,100260.72
2018-09-21T09:15:50.911Z,100262.16
2018-09-21T09:18:19.880Z,100261.09
2018-09-21T09:20:48.848Z,100252.28
2018-09-21T09:23:17.843Z,100254.22
2018-09-21T09:25:46.816Z,100253.67
2018-09-21T09:28:15.806Z,100245.05
2018-09-21T09:30:44.750Z,100239.28
2018-09-21T09:33:13.749Z,100242.56
2018-09-21T09:35:42.753Z,100239.19
2018-09-21T09:38:11.812Z,100236.73
2018-09-21T09:40:40.762Z,100234.77
2018-09-21T09:43:09.860Z,100234.08
2018-09-21T09:45:38.935Z,100228.41
2018-09-21T09:48:07.884Z,100220.95
2018-09-21T09:50:36.893Z,100224.27
2018-09-21T09:53:06.326Z,100220.86
2018-09-21T09:55:35.272Z,100215.36
2018-09-21T09:58:04.220Z,100223.05
2018-09-21T10:00:36.242Z,100219.20
2018-09-21T10:03:05.285Z,100217.27
2018-09-21T10:05:34.325Z,100223.21
2018-09-21T10:08:03.280Z,100219.58
2018-09-21T10:10:32.254Z,100217.48
2018-09-21T10:13:01.226Z,100214.73
2018-09-21T10:15:30.233Z,100215.25
2018-09-21T10:17:59.234Z,100220.95
2018-09-21T10:20:28.316Z,100215.52
2018-09-21T10:22:57.227Z,100208.31
2018-09-21T10:25:26.202Z,100213.27
2018-09-21T10:27:55.404Z,100203.44
2018-09-21T10:30:24.169Z,100209.02
2018-09-21T10:32:53.124Z,100208.89
2018-09-21T10:35:22.061Z,100199.04
2018-09-21T10:37:51.058Z,100202.73
2018-09-21T10:40:20.008Z,100189.14
2018-09-21T10:42:49.190Z,100194.94
2018-09-21T10:45:18.126Z,100197.36
2018-09-21T10:47:47.111Z,100189.59
2018-09-21T10:50:16.125Z,100185.02
2018-09-21T10:52:45.171Z,100176.18
2018-09-21T10:55:14.102Z,100177.77
2018-09-21T10:57:43.109Z,100180.05
2018-09-21T11:00:12.415Z,100183.77
2018-09-21T11:02:41.374Z,100180.81
2018-09-21T11:05:10.334Z,100177.83
2018-09-21T11:07:39.299Z,100176.22
2018-09-21T11:10:08.228Z,100174.12
2018-09-21T11:12:37.415Z,100174.73
2018-09-21T11:15:06.394Z,100172.25
2018-09-21T11:17:35.383Z,100170.88
2018-09-21T11:20:04.371Z,100173.30
2018-09-21T11:22:33.386Z,100174.47
2018-09-21T11:25:02.349Z,100168.41
2018-09-21T11:27:31.275Z,100158.70
2018-09-21T11:30:00.238Z,100167.22
2018-09-21T11:32:29.178Z,100160.89
2018-09-21T11:34:58.174Z,100161.28
2018-09-21T11:37:27.108Z,100158.25
2018-09-21T11:39:56.064Z,100158.09
2018-09-21T11:42:25.068Z,100149.45
2018-09-21T11:44:54.103Z,100154.38
2018-09-21T11:47:23.287Z,100148.54
2018-09-21T11:49:52.159Z,100149.33
2018-09-21T11:52:21.121Z,100142.88
2018-09-21T11:54:50.049Z,100131.79
2018-09-21T11:57:18.979Z,100134.36
2018-09-21T11:59:47.895Z,100126.28
2018-09-21T12:02:16.852Z,100130.44
2018-09-21T12:04:45.928Z,100132.62
2018-09-21T12:07:14.923Z,100130.12
2018-09-21T12:09:43.962Z,100133.43
2018-09-21T12:12:12.908Z,100126.22
2018-09-21T12:14:42.033Z,100124.69
2018-09-21T12:17:11.066Z,100126.09
2018-09-21T12:19:40.054Z,100118.63
2018-09-21T12:22:09.029Z,100115.83
2018-09-21T12:24:38.075Z,100108.11
2018-09-21T12:27:07.081Z,100112.39
2018-09-21T12:29:36.096Z,100101.45
2018-09-21T12:32:05.159Z,100096.27
2018-09-21T12:34:34.140Z,100100.66
2018-09-21T12:37:03.109Z,100094.59
2018-09-21T12:39:32.081Z,100094.92
2018-09-21T12:42:01.113Z,100088.86
2018-09-21T12:44:30.156Z,100099.41
2018-09-21T12:46:59.152Z,100096.27
2018-09-21T12:49:28.131Z,100090.45
2018-09-21T12:51:57.185Z,100084.03
2018-09-21T12:54:26.139Z,100081.98
2018-09-21T12:56:55.263Z,100089.76
2018-09-21T12:59:24.231Z,100088.46
2018-09-21T13:01:53.216Z,100085.59
2018-09-21T13:04:22.250Z,100080.59
2018-09-21T13:06:51.240Z,100069.95
2018-09-21T13:09:20.199Z,100083.84
2018-09-21T13:11:49.166Z,100074.90
2018-09-21T13:14:18.134Z,100074.67
2018-09-21T13:16:47.158Z,100076.49
2018-09-21T13:19:16.365Z,100073.20
2018-09-21T13:21:45.327Z,100067.98
2018-09-21T13:24:14.289Z,100064.84
2018-09-21T13:26:43.291Z,100065.20
2018-09-21T13:29:12.284Z,100064.68
2018-09-21T13:31:41.253Z,100064.52
2018-09-21T13:34:10.270Z,100062.50
2018-09-21T13:36:39.233Z,100060.52
2018-09-21T13:39:10.875Z,100061.48
2018-09-21T13:41:40.388Z,100055.94
2018-09-21T13:44:09.579Z,100062.95
2018-09-21T13:46:38.520Z,100055.48
2018-09-21T13:49:07.515Z,100055.58
2018-09-21T13:51:36.494Z,100059.74
2018-09-21T13:54:05.445Z,100056.97
2018-09-21T13:56:34.398Z,100053.97
2018-09-21T13:59:03.386Z,100055.52
2018-09-21T14:01:32.335Z,100057.34
2018-09-21T14:04:01.406Z,100052.25
2018-09-21T14:06:30.394Z,100055.11
2018-09-21T14:08:59.449Z,100056.56
2018-09-21T14:11:28.419Z,100053.53
2018-09-21T14:13:57.369Z,100058.63
2018-09-21T14:16:26.387Z,100060.78
2018-09-21T14:18:55.357Z,100057.74
2018-09-21T14:21:24.422Z,100058.52
2018-09-21T14:23:53.360Z,100059.95
2018-09-21T14:26:22.400Z,100058.92
2018-09-21T14:28:51.400Z,100065.91
2018-09-21T14:31:20.508Z,100052.77
2018-09-21T14:33:49.503Z,100058.71
2018-09-21T14:36:18.467Z,100066.34
2018-09-21T14:38:47.445Z,100065.08
2018-09-21T14:41:16.437Z,100059.66
2018-09-21T14:43:45.470Z,100056.96
2018-09-21T14:46:14.486Z,100049.55
2018-09-21T14:48:43.495Z,100060.67
2018-09-21T14:51:12.532Z,100058.26
2018-09-21T14:53:41.531Z,100059.77
2018-09-21T14:56:10.526Z,100051.27
2018-09-21T14:58:39.683Z,100050.03
2018-09-21T15:01:08.461Z,100049.30
2018-09-21T15:03:37.536Z,100046.58
2018-09-21T15:06:06.641Z,100036.44
2018-09-21T15:08:35.636Z,100037.63
2018-09-21T15:11:04.744Z,100047.64
2018-09-21T15:13:33.818Z,100048.81
2018-09-21T15:16:02.852Z,100041.42
2018-09-21T15:18:32.039Z,100041.48
2018-09-21T15:21:01.048Z,100049.00
2018-09-21T15:23:30.443Z,100040.48
2018-09-21T15:25:59.422Z,100042.77
2018-09-21T15:28:28.448Z,100042.81
2018-09-21T15:30:57.394Z,100040.63
2018-09-21T15:33:26.433Z,100034.88
2018-09-21T15:35:55.367Z,100036.02
2018-09-21T15:38:24.294Z,100037.11
2018-09-21T15:40:53.243Z,100040.16
2018-09-21T15:43:22.271Z,100037.94
2018-09-21T15:45:51.331Z,100042.34
2018-09-21T15:48:20.325Z,100044.77
2018-09-21T15:50:49.299Z,100037.27
2018-09-21T15:53:18.235Z,100043.84
2018-09-21T15:55:47.292Z,100040.47
2018-09-21T15:58:16.296Z,100039.55
2018-09-21T16:00:45.297Z,100031.78
2018-09-21T16:03:14.325Z,100041.32
2018-09-21T16:05:43.307Z,100042.09
2018-09-21T16:08:12.304Z,100044.11
2018-09-21T16:10:41.317Z,100040.33
2018-09-21T16:13:10.355Z,100032.58
2018-09-21T16:15:39.300Z,100039.03
2018-09-21T16:18:08.359Z,100037.27
2018-09-21T16:20:37.341Z,100032.48
2018-09-21T16:23:06.548Z,100037.42
2018-09-21T16:25:35.644Z,100038.43
2018-09-21T16:28:04.643Z,100040.84
2018-09-21T16:30:33.630Z,100035.15
2018-09-21T16:33:02.680Z,100041.30
2018-09-21T16:35:31.676Z,100039.53
2018-09-21T16:38:00.743Z,100033.25
2018-09-21T16:40:29.771Z,100040.20
2018-09-21T16:42:58.772Z,100037.34
2018-09-21T16:45:27.767Z,100035.53
2018-09-21T16:47:56.822Z,100045.25
2018-09-21T16:50:25.785Z,100044.55
2018-09-21T16:52:54.763Z,100044.16
2018-09-21T16:55:23.734Z,100047.91
2018-09-21T16:57:52.818Z,100041.98
2018-09-21T17:00:21.889Z,100051.45
2018-09-21T17:02:50.973Z,100049.06
2018-09-21T17:05:19.942Z,100046.91
2018-09-21T17:07:48.888Z,100045.57
2018-09-21T17:10:17.857Z,100047.04
2018-09-21T17:12:46.857Z,100049.37
2018-09-21T17:15:15.878Z,100047.31
2018-09-21T17:17:44.865Z,100046.13
2018-09-21T17:20:13.842Z,100052.88
2018-09-21T17:22:42.867Z,100054.98
2018-09-21T17:25:11.888Z,100056.74
2018-09-21T17:27:40.965Z,100065.72
2018-09-21T17:30:09.913Z,100060.45
2018-09-21T17:32:38.947Z,100062.00
2018-09-21T17:35:08.165Z,100065.47
2018-09-21T17:37:37.147Z,100059.66
2018-09-21T17:40:06.296Z,100062.52
2018-09-21T17:42:35.241Z,100062.16
2018-09-21T17:45:04.278Z,100066.69
2018-09-21T17:47:33.389Z,100064.89
2018-09-21T17:50:02.363Z,100065.09
2018-09-21T17:52:31.377Z,100061.89
2018-09-21T17:55:00.329Z,100071.16
2018-09-21T17:57:29.273Z,100065.56
2018-09-21T17:59:58.244Z,100071.79
2018-09-21T18:02:27.356Z,100073.16
2018-09-21T18:04:56.415Z,100072.52
2018-09-21T18:07:25.413Z,100077.05
2018-09-21T18:09:54.797Z,100079.70
2018-09-21T18:12:23.793Z,100074.91
2018-09-21T18:14:52.764Z,100084.05
2018-09-21T18:17:21.732Z,100084.22
2018-09-21T18:19:50.691Z,100083.88
2018-09-21T18:22:19.717Z,100076.67
2018-09-21T18:24:48.904Z,100074.17
2018-09-21T18:27:17.877Z,100079.59
2018-09-21T18:29:46.847Z,100069.73
2018-09-21T18:32:15.874Z,100078.76
2018-09-21T18:34:44.829Z,100079.45
2018-09-21T18:37:13.792Z,100078.61
2018-09-21T18:39:42.836Z,100068.53
2018-09-21T18:42:11.803Z,100067.92
2018-09-21T18:44:40.890Z,100069.89
2018-09-21T18:47:09.832Z,100070.35
2018-09-21T18:49:38.892Z,100066.98
2018-09-21T18:52:07.895Z,100065.54
2018-09-21T18:54:36.949Z,100068.73
2018-09-21T18:57:05.951Z,100066.30
2018-09-21T18:59:34.891Z,100067.20
2018-09-21T19:02:03.840Z,100071.03
2018-09-21T19:04:32.810Z,100070.03
2018-09-21T19:07:01.838Z,100074.84
2018-09-21T19:09:30.827Z,100077.39
2018-09-21T19:11:59.884Z,100081.86
2018-09-21T19:14:28.841Z,100077.53
2018-09-21T19:16:57.901Z,100077.83
2018-09-21T19:19:27.011Z,100075.20
2018-09-21T19:21:55.973Z,100079.47
2018-09-21T19:24:24.929Z,100079.11
2018-09-21T19:26:53.900Z,100083.16
2018-09-21T19:29:22.880Z,100083.22
2018-09-21T19:31:51.898Z,100074.89
2018-09-21T19:34:20.868Z,100071.56
2018-09-21T19:36:49.909Z,100068.53
2018-09-21T19:39:18.992Z,100065.80
2018-09-21T19:41:48.215Z,100062.16
2018-09-21T19:44:17.224Z,100065.69
2018-09-21T19:46:46.287Z,100061.30
2018-09-21T19:49:15.270Z,100061.00
2018-09-21T19:51:44.229Z,100061.36
2018-09-21T19:54:13.164Z,100058.66
2018-09-21T19:56:42.123Z,100067.69
2018-09-21T19:59:11.263Z,100064.66
2018-09-21T20:01:40.335Z,100067.46
2018-09-21T20:04:09.412Z,100070.50
2018-09-21T20:06:38.408Z,100065.96
2018-09-21T20:09:09.769Z,100064.86
2018-09-21T20:11:38.771Z,100068.95
2018-09-21T20:14:07.739Z,100072.27
2018-09-21T20:16:36.748Z,100073.30
2018-09-21T20:19:05.756Z,100070.86
2018-09-21T20:21:34.710Z,100068.95
2018-09-21T20:24:03.719Z,100076.06
2018-09-21T20:26:32.744Z,100078.69
2018-09-21T20:29:01.953Z,100078.39
2018-09-21T20:31:35.939Z,100082.72
2018-09-21T20:34:04.923Z,100081.02
2018-09-21T20:36:33.944Z,100085.59
2018-09-21T20:39:02.921Z,100084.34
2018-09-21T20:41:31.917Z,100085.81
2018-09-21T20:44:00.914Z,100082.73
2018-09-21T20:46:29.956Z,100078.59
2018-09-21T20:48:58.942Z,100081.91
2018-09-21T20:51:27.900Z,100081.11
2018-09-21T20:53:56.916Z,100077.52
2018-09-21T20:56:25.880Z,100073.39
2018-09-21T20:58:55.009Z,100068.53
2018-09-21T21:01:24.099Z,100075.08
2018-09-21T21:03:53.161Z,100075.63
2018-09-21T21:06:22.142Z,100074.31
2018-09-21T21:08:51.114Z,100071.28
2018-09-21T21:11:20.073Z,100067.67
2018-09-21T21:13:49.048Z,100072.20
2018-09-21T21:16:18.105Z,100062.69
2018-09-21T21:18:47.119Z,100069.66
2018-09-21T21:21:16.126Z,100061.49
2018-09-21T21:23:45.121Z,100062.56
2018-09-21T21:26:14.161Z,100065.67
2018-09-21T21:28:43.125Z,100064.70
2018-09-21T21:31:12.133Z,100066.06
2018-09-21T21:33:41.162Z,100058.42
2018-09-21T21:36:10.145Z,100068.30
2018-09-21T21:38:39.113Z,100065.41
2018-09-21T21:41:08.068Z,100061.45
2018-09-21T21:43:37.033Z,100066.54
2018-09-21T21:46:06.056Z,100060.17
2018-09-21T21:48:35.093Z,100058.41
2018-09-21T21:51:04.168Z,100057.23
2018-09-21T21:53:33.155Z,100055.56
2018-09-21T21:56:02.179Z,100050.86
2018-09-21T21:58:31.166Z,100048.66
2018-09-21T22:01:05.183Z,100054.63
2018-09-21T22:03:34.131Z,100050.24
2018-09-21T22:06:03.133Z,100056.44
2018-09-21T22:08:32.228Z,100048.73
2018-09-21T22:11:04.939Z,100053.70
2018-09-21T22:13:39.002Z,100047.48
2018-09-21T22:16:08.092Z,100050.06
2018-09-21T22:18:37.079Z,100043.81
2018-09-21T22:21:06.016Z,100046.39
2018-09-21T22:23:35.008Z,100047.29
2018-09-21T22:26:03.977Z,100042.28
2018-09-21T22:28:33.023Z,100042.72
2018-09-21T22:31:02.011Z,100041.30
2018-09-21T22:33:31.010Z,100042.56
2018-09-21T22:36:00.025Z,99991.30
2018-09-21T22:38:29.305Z,100033.31
2018-09-21T22:40:58.291Z,100038.26
2018-09-21T22:43:27.230Z,100041.98
2018-09-21T22:45:56.220Z,100038.77
2018-09-21T22:48:25.148Z,100036.94
2018-09-21T22:50:54.261Z,100041.56
2018-09-21T22:53:23.220Z,100037.74
2018-09-21T22:55:52.298Z,100042.08
2018-09-21T22:58:21.374Z,100042.02
2018-09-21T23:00:50.306Z,100043.80
2018-09-21T23:03:19.292Z,100036.32
2018-09-21T23:05:48.297Z,100040.09
2018-09-21T23:08:17.306Z,100039.77
2018-09-21T23:10:46.328Z,100044.20
2018-09-21T23:13:15.363Z,100039.61
2018-09-21T23:15:44.351Z,100034.52
2018-09-21T23:18:13.357Z,100037.34
2018-09-21T23:20:42.320Z,100043.51
2018-09-21T23:23:11.292Z,100043.51
2018-09-21T23:25:40.244Z,100041.35
2018-09-21T23:28:10.166Z,100049.92
2018-09-21T23:30:39.174Z,100052.32
2018-09-21T23:33:08.253Z,100050.65
2018-09-21T23:35:37.254Z,100051.69
2018-09-21T23:38:06.244Z,100050.78
2018-09-21T23:40:35.199Z,100047.76
2018-09-21T23:43:04.233Z,100048.80
2018-09-21T23:45:33.214Z,100051.30
2018-09-21T23:48:02.248Z,100051.02
2018-09-21T23:50:31.191Z,100051.23
2018-09-21T23:53:00.189Z,100051.54
2018-09-21T23:55:29.235Z,100053.52
2018-09-21T23:57:58.247Z,100044.02
